Terminal Aerodrome Forecast
Issued by NWS Corpus Christi, TX

Home | Current Version | Previous Version | Text Only | Print | Product List | Glossary On
Versions: 1 2 3 4 5 6 7 8 9 10 11 12 13 14 15 16 17 18
023
FTUS44 KCRP 281727
TAFVCT
TAF
KVCT 281727Z 2818/2918 14014G21KT P6SM SCT035 BKN250
      TEMPO 2818/2820 BKN029
     FM290100 14010KT P6SM OVC011
     FM290500 06006KT 5SM BR VCTS OVC012CB PROB30 2908/2914
      VRB15G25KT 1SM +TSRA OVC018CB
     FM291400 VRB06KT P6SM -SHRA SCT028 OVC120=

USA.gov is the U.S. government's official web portal to all federal, state and local government web resources and services.